Time;durP1;ratioP1;P1;durP2;ratioP2;P2;SDS_P1;SDS_P2;PMS_P1;PMS_P2;Temp;Humidity;BMP_temperature;BMP_pressure;BME280_temperature;BME280_humidity;BME280_pressure;Samples;Min_cycle;Max_cycle;Signal;HPM_P1;HPM_P2
2023/01/24 00:01:01;;;;;;;8.23;6.53;;;;;;;11.94;100.00;102028.31;2104523;28;20039;-73
2023/01/24 00:02:23;;;;;;;13.57;11.68;;;;;;;11.89;100.00;102035.19;2105182;28;20071;-73
2023/01/24 00:03:46;;;;;;;19.98;17.83;;;;;;;11.82;100.00;102038.50;2103304;28;20056;-72
2023/01/24 00:05:08;;;;;;;27.60;25.00;;;;;;;11.72;100.00;102038.16;2107738;27;20043;-74
2023/01/24 00:06:30;;;;;;;13.80;12.32;;;;;;;11.58;100.00;102033.31;2097766;28;20044;-73
2023/01/24 00:07:51;;;;;;;16.55;14.20;;;;;;;11.47;100.00;102033.84;2103187;28;20051;-74
2023/01/24 00:09:14;;;;;;;19.77;17.58;;;;;;;11.41;100.00;102038.94;2105073;28;20044;-73
2023/01/24 00:10:37;;;;;;;17.02;13.00;;;;;;;11.36;100.00;102032.56;2102773;28;20055;-73
2023/01/24 00:11:59;;;;;;;8.07;5.00;;;;;;;11.34;100.00;102027.25;2103143;28;20052;-72
2023/01/24 00:13:21;;;;;;;9.23;6.13;;;;;;;11.38;100.00;102026.50;2109929;28;20035;-73
2023/01/24 00:14:44;;;;;;;6.00;3.78;;;;;;;11.45;100.00;102030.22;2110526;28;20055;-72
2023/01/24 00:16:07;;;;;;;4.88;2.63;;;;;;;11.50;100.00;102024.25;2110218;28;20055;-73
2023/01/24 00:17:29;;;;;;;4.53;2.25;;;;;;;11.52;100.00;102030.50;2111654;28;20075;-73
2023/01/24 00:18:51;;;;;;;2.33;1.80;;;;;;;11.56;100.00;102028.81;2120102;27;20058;-73
2023/01/24 00:20:13;;;;;;;3.75;2.05;;;;;;;11.56;100.00;102019.16;2113819;28;20048;-73
2023/01/24 00:21:35;;;;;;;4.22;1.95;;;;;;;11.58;100.00;102024.50;2096870;28;20043;-72
2023/01/24 00:22:57;;;;;;;4.53;1.95;;;;;;;11.59;100.00;102021.00;2095043;28;20053;-72
2023/01/24 00:24:19;;;;;;;4.60;2.28;;;;;;;11.59;100.00;102024.53;2099675;28;20089;-72
2023/01/24 00:25:42;;;;;;;3.85;2.10;;;;;;;11.57;100.00;102018.31;2111408;28;20574;-73
2023/01/24 00:27:04;;;;;;;3.05;1.83;;;;;;;11.56;100.00;102023.53;2102841;28;20048;-73
2023/01/24 00:28:25;;;;;;;2.00;1.52;;;;;;;11.55;100.00;102014.69;2106888;28;20047;-73
2023/01/24 00:29:48;;;;;;;2.83;2.00;;;;;;;11.56;100.00;102020.88;2103105;28;20051;-73
2023/01/24 00:31:12;;;;;;;3.60;1.92;;;;;;;11.56;100.00;102024.44;2107730;28;20043;-73
2023/01/24 00:32:33;;;;;;;3.45;1.88;;;;;;;11.56;100.00;102028.81;2105727;28;20404;-74
2023/01/24 00:33:55;;;;;;;3.55;1.92;;;;;;;11.54;100.00;102018.22;2108491;28;20051;-73
2023/01/24 00:35:18;;;;;;;4.55;2.53;;;;;;;11.53;100.00;102020.81;2097876;28;20041;-74
2023/01/24 00:36:41;;;;;;;4.65;2.05;;;;;;;11.49;100.00;102019.78;2106966;28;20128;-72
2023/01/24 00:38:03;;;;;;;3.10;2.50;;;;;;;11.48;100.00;102014.47;2091778;28;20049;-73
2023/01/24 00:39:26;;;;;;;6.70;2.92;;;;;;;11.46;100.00;102014.44;2102900;28;20048;-74
2023/01/24 00:40:50;;;;;;;6.85;3.80;;;;;;;11.41;100.00;102012.50;2093523;28;20036;-73
2023/01/24 00:42:12;;;;;;;7.22;3.53;;;;;;;11.32;100.00;102009.53;2105344;28;20052;-73
2023/01/24 00:43:33;;;;;;;5.75;3.40;;;;;;;11.24;100.00;102008.38;2111333;28;20039;-73
2023/01/24 00:44:56;;;;;;;6.00;3.15;;;;;;;11.21;100.00;102011.84;2119761;27;20391;-73
2023/01/24 00:46:18;;;;;;;12.27;5.57;;;;;;;11.16;100.00;102006.38;2105761;28;20070;-73
2023/01/24 00:47:43;;;;;;;13.07;6.30;;;;;;;11.12;100.00;102006.22;2094327;28;20036;-73
2023/01/24 00:49:05;;;;;;;23.60;9.68;;;;;;;11.11;100.00;102017.66;2092939;28;20528;-73
2023/01/24 00:50:26;;;;;;;20.73;7.35;;;;;;;11.09;100.00;102008.78;2101298;28;20098;-72
2023/01/24 00:51:49;;;;;;;12.73;5.45;;;;;;;11.07;100.00;102000.81;2113961;28;20070;-73
2023/01/24 00:53:10;;;;;;;11.52;5.15;;;;;;;11.09;100.00;102017.59;2111603;28;20048;-73
2023/01/24 00:54:33;;;;;;;23.60;10.27;;;;;;;11.06;100.00;102012.22;2098708;28;20044;-73
2023/01/24 00:55:56;;;;;;;33.20;12.68;;;;;;;11.04;100.00;102015.66;2099815;28;20051;-73
2023/01/24 00:57:18;;;;;;;13.50;6.15;;;;;;;11.00;100.00;102013.75;2105652;28;20047;-73
2023/01/24 00:58:41;;;;;;;10.38;4.57;;;;;;;10.97;100.00;102022.47;2109960;28;20518;-73
2023/01/24 01:00:02;;;;;;;9.95;3.70;;;;;;;11.06;100.00;102019.25;2102267;28;20255;-73
2023/01/24 01:01:25;;;;;;;7.05;2.97;;;;;;;11.13;100.00;102023.91;2094051;28;20110;-73
2023/01/24 01:02:46;;;;;;;7.30;3.40;;;;;;;11.13;100.00;102018.59;2103880;28;20507;-73
2023/01/24 01:04:09;;;;;;;5.85;2.83;;;;;;;11.08;100.00;102013.19;2109007;28;20471;-74
2023/01/24 01:05:31;;;;;;;8.00;3.40;;;;;;;11.04;100.00;102015.66;2094697;28;20040;-73
2023/01/24 01:06:53;;;;;;;12.45;5.13;;;;;;;11.07;100.00;102021.94;2105655;28;20056;-74
2023/01/24 01:08:15;;;;;;;11.60;4.40;;;;;;;11.11;100.00;102017.66;2097207;28;20427;-74
2023/01/24 01:09:37;;;;;;;11.73;5.05;;;;;;;11.13;100.00;102014.22;2095755;28;20048;-74
2023/01/24 01:11:00;;;;;;;11.82;5.95;;;;;;;11.14;100.00;102029.25;2094507;28;20133;-73
2023/01/24 01:12:23;;;;;;;17.02;6.60;;;;;;;11.11;100.00;102026.47;2091555;28;20471;-73
2023/01/24 01:13:47;;;;;;;10.90;4.20;;;;;;;11.09;100.00;102028.16;2094376;28;20075;-74
2023/01/24 01:15:10;;;;;;;11.43;4.95;;;;;;;11.07;100.00;102024.59;2099624;28;20138;-73
2023/01/24 01:16:32;;;;;;;9.20;4.30;;;;;;;11.04;100.00;102036.78;2105539;28;20035;-73
2023/01/24 01:17:54;;;;;;;7.88;3.42;;;;;;;10.98;100.00;102031.28;2105500;28;20048;-74
2023/01/24 01:19:16;;;;;;;3.97;1.85;;;;;;;10.91;100.00;102040.75;2097285;28;20754;-73
2023/01/24 01:20:37;;;;;;;3.03;1.60;;;;;;;10.83;100.00;102031.66;2100232;28;20055;-72
2023/01/24 01:22:00;;;;;;;5.07;2.22;;;;;;;10.81;100.00;102033.38;2112336;27;20059;-74
2023/01/24 01:23:21;;;;;;;4.05;1.83;;;;;;;10.81;100.00;102043.03;2104905;28;20059;-73
2023/01/24 01:24:43;;;;;;;3.30;1.58;;;;;;;10.76;100.00;102038.47;2100621;28;20553;-73
2023/01/24 01:26:09;;;;;;;5.18;1.77;;;;;;;10.75;100.00;102043.72;2108515;28;20444;-73
2023/01/24 01:27:32;;;;;;;2.40;1.40;;;;;;;10.73;100.00;102041.00;2111609;28;20032;-73
2023/01/24 01:28:56;;;;;;;2.58;1.80;;;;;;;10.75;100.00;102041.97;2096950;28;20098;-73
2023/01/24 01:30:18;;;;;;;3.08;1.50;;;;;;;10.77;100.00;102042.00;2106633;28;20051;-73
2023/01/24 01:31:40;;;;;;;4.15;1.80;;;;;;;10.78;100.00;102036.78;2099919;28;20167;-73
2023/01/24 01:33:02;;;;;;;3.38;1.70;;;;;;;10.82;100.00;102034.25;2099867;28;20134;-73
2023/01/24 01:34:24;;;;;;;3.85;2.20;;;;;;;10.87;100.00;102040.59;2098852;28;20077;-73
2023/01/24 01:35:46;;;;;;;3.92;2.13;;;;;;;10.92;100.00;102039.00;2094983;28;20043;-72
2023/01/24 01:37:08;;;;;;;4.57;2.17;;;;;;;10.94;100.00;102029.41;2107217;28;20055;-73
2023/01/24 01:38:31;;;;;;;4.65;2.53;;;;;;;10.97;100.00;102033.03;2106649;28;20066;-73
2023/01/24 01:39:52;;;;;;;4.95;2.55;;;;;;;10.98;100.00;102031.28;2096605;28;20055;-73
2023/01/24 01:41:16;;;;;;;4.13;2.28;;;;;;;11.01;100.00;102034.94;2104273;28;20047;-73
2023/01/24 01:42:45;;;;;;;6.75;3.70;;;;;;;11.02;100.00;102030.56;2094493;28;20048;-73
2023/01/24 01:46:01;;;;;;;4.05;2.30;;;;;;;11.04;100.00;102015.66;2104648;28;20164;-73
2023/01/24 01:47:26;;;;;;;3.40;2.20;;;;;;;11.07;100.00;102021.03;2108520;28;20043;-73
2023/01/24 01:48:51;;;;;;;3.72;2.30;;;;;;;11.09;100.00;102020.22;2094990;28;20140;-72
2023/01/24 01:50:24;;;;;;;8.30;5.20;;;;;;;11.10;100.00;102016.75;2091625;28;20520;-74
2023/01/24 01:51:50;;;;;;;17.63;10.77;;;;;;;11.11;100.00;102017.66;2095390;28;20123;-73
2023/01/24 01:53:13;;;;;;;16.52;14.57;;;;;;;11.02;100.00;102018.25;2111548;28;20468;-73
2023/01/24 01:54:40;;;;;;;11.77;10.27;;;;;;;10.94;100.00;102019.75;2106381;28;20080;-73
2023/01/24 01:56:08;;;;;;;11.07;8.30;;;;;;;10.86;100.00;102018.56;2105129;28;20051;-73
2023/01/24 01:57:33;;;;;;;16.80;9.50;;;;;;;10.81;100.00;102016.63;2109871;28;20043;-73
2023/01/24 01:58:59;;;;;;;20.55;11.93;;;;;;;10.79;100.00;102020.09;2100219;28;20056;-73
2023/01/24 02:00:23;;;;;;;30.08;22.05;;;;;;;10.78;100.00;102020.94;2099135;28;20572;-73
2023/01/24 02:01:46;;;;;;;22.95;15.68;;;;;;;10.78;100.00;102013.00;2101925;28;20043;-73
2023/01/24 02:04:56;;;;;;;20.77;15.48;;;;;;;10.83;100.00;102009.66;2104498;28;20055;-73
2023/01/24 02:06:32;;;;;;;18.17;14.75;;;;;;;10.89;100.00;102010.75;2102534;28;20071;-73
2023/01/24 02:08:00;;;;;;;41.88;37.65;;;;;;;10.88;100.00;102014.25;2104544;28;20056;-73
2023/01/24 02:09:28;;;;;;;41.20;37.10;;;;;;;10.82;100.00;102013.13;2096450;28;20172;-73
2023/01/24 02:12:39;;;;;;;31.25;27.98;;;;;;;10.68;100.00;102010.00;2099500;28;20031;-73
2023/01/24 02:17:25;;;;;;;8.05;5.70;;;;;;;10.69;100.00;102022.38;2098920;28;20044;-73
2023/01/24 02:18:46;;;;;;;10.25;7.00;;;;;;;10.71;100.00;102032.13;2108485;28;20142;-73
2023/01/24 02:20:29;;;;;;;11.40;8.15;;;;;;;10.70;100.00;102029.44;2105015;28;20160;-74
2023/01/24 02:21:55;;;;;;;15.20;10.05;;;;;;;10.74;100.00;102034.91;2096979;28;20056;-73
2023/01/24 02:23:25;;;;;;;9.48;6.18;;;;;;;10.80;100.00;102023.63;2086000;28;20140;-73
2023/01/24 02:24:59;;;;;;;7.78;5.90;;;;;;;10.85;100.00;102016.75;2107171;28;20047;-73
2023/01/24 02:26:24;;;;;;;9.25;5.10;;;;;;;10.85;100.00;102018.50;2099278;28;20063;-73
2023/01/24 02:27:45;;;;;;;8.93;4.72;;;;;;;10.82;100.00;102013.13;2099027;28;20095;-73
2023/01/24 02:29:12;;;;;;;9.15;4.80;;;;;;;10.81;100.00;102017.50;2103038;28;20097;-73
2023/01/24 02:30:35;;;;;;;6.30;3.58;;;;;;;10.79;100.00;102021.84;2109062;28;20051;-73
2023/01/24 02:31:58;;;;;;;7.05;3.08;;;;;;;10.81;100.00;102021.91;2093902;28;20694;-74
2023/01/24 02:33:21;;;;;;;13.27;10.18;;;;;;;10.78;100.00;102020.03;2101234;28;20186;-73
2023/01/24 02:34:42;;;;;;;6.57;4.13;;;;;;;10.79;100.00;102016.56;2096694;28;20442;-73
2023/01/24 02:36:18;;;;;;;5.40;3.70;;;;;;;10.85;100.00;102021.16;2101956;28;20070;-72
2023/01/24 02:37:41;;;;;;;6.22;3.40;;;;;;;10.85;100.00;102023.78;2100300;28;20055;-72
2023/01/24 02:39:04;;;;;;;5.07;2.72;;;;;;;10.90;100.00;102023.09;2099595;28;20084;-73
2023/01/24 02:40:30;;;;;;;4.10;2.42;;;;;;;10.96;100.00;102022.44;2108099;28;20108;-73
2023/01/24 02:41:58;;;;;;;5.78;2.90;;;;;;;10.99;100.00;102023.44;2096591;28;20049;-73
2023/01/24 02:43:23;;;;;;;4.88;2.80;;;;;;;11.00;100.00;102029.59;2101159;28;20048;-73
2023/01/24 02:44:51;;;;;;;5.35;3.00;;;;;;;11.00;100.00;102026.97;2093841;28;20113;-73
2023/01/24 02:46:13;;;;;;;6.75;2.47;;;;;;;10.98;100.00;102026.00;2094764;28;20135;-73
2023/01/24 02:47:41;;;;;;;4.20;2.15;;;;;;;10.96;100.00;102028.59;2101993;28;20063;-73
2023/01/24 02:49:03;;;;;;;3.83;2.15;;;;;;;10.93;100.00;102025.84;2107689;28;20488;-74
2023/01/24 02:50:29;;;;;;;2.83;1.75;;;;;;;10.93;100.00;102023.22;2093751;28;20068;-73
2023/01/24 02:53:50;;;;;;;3.67;2.05;;;;;;;10.88;100.00;102029.19;2111869;28;20106;-73
2023/01/24 02:55:12;;;;;;;4.32;2.17;;;;;;;10.87;100.00;102028.28;2099507;28;20036;-73
2023/01/24 02:58:20;;;;;;;3.13;1.80;;;;;;;10.84;100.00;102025.53;2083810;28;20049;-73
2023/01/24 02:59:43;;;;;;;2.85;1.83;;;;;;;10.84;100.00;102024.63;2088293;28;20135;-72
2023/01/24 03:01:05;;;;;;;5.55;2.38;;;;;;;10.82;100.00;102028.97;2090949;28;20048;-74
2023/01/24 03:02:27;;;;;;;16.52;6.60;;;;;;;10.78;100.00;102030.59;2094672;28;20055;-73
2023/01/24 03:03:51;;;;;;;11.85;5.35;;;;;;;10.76;100.00;102025.25;2107979;28;20499;-74
2023/01/24 03:05:13;;;;;;;20.00;8.77;;;;;;;10.75;100.00;102022.59;2087193;28;20060;-73
2023/01/24 03:06:35;;;;;;;20.58;9.13;;;;;;;10.73;100.00;102024.28;2101182;28;20048;-73
2023/01/24 03:07:57;;;;;;;10.30;4.30;;;;;;;10.72;100.00;102018.09;2097959;28;20588;-73
2023/01/24 03:09:33;;;;;;;4.05;2.03;;;;;;;10.73;100.00;102016.34;2095206;28;20488;-74
2023/01/24 03:10:56;;;;;;;4.00;2.17;;;;;;;10.73;100.00;102018.97;2090491;28;20484;-74
2023/01/24 03:35:40;;;;;;;4.80;2.88;;;;;;;10.38;100.00;102042.38;2097809;28;20163;-73
2023/01/24 03:37:01;;;;;;;6.18;4.20;;;;;;;10.38;100.00;102042.38;2094940;28;20049;-73
2023/01/24 03:40:08;;;;;;;4.80;2.17;;;;;;;10.43;100.00;102039.03;2089380;28;20056;-73
2023/01/24 03:41:29;;;;;;;3.90;2.30;;;;;;;10.46;100.00;102045.31;2098747;28;20032;-73
2023/01/24 03:42:51;;;;;;;2.95;1.90;;;;;;;10.46;100.00;102039.13;2103407;28;20125;-73
2023/01/24 03:44:18;;;;;;;4.32;2.40;;;;;;;10.46;100.00;102047.03;2110324;28;20043;-74
2023/01/24 03:45:42;;;;;;;3.58;2.40;;;;;;;10.46;100.00;102040.03;2099142;28;20047;-73
2023/01/24 03:47:16;;;;;;;4.82;2.80;;;;;;;10.45;100.00;102042.59;2095813;28;20040;-73
2023/01/24 03:48:39;;;;;;;3.05;1.83;;;;;;;10.44;100.00;102041.69;2091917;28;20071;-73
2023/01/24 03:53:25;;;;;;;11.68;5.20;;;;;;;10.39;100.00;102033.63;2089257;28;20049;-73
2023/01/24 03:54:48;;;;;;;23.48;10.30;;;;;;;10.41;100.00;102035.41;2106393;28;20052;-73
2023/01/24 03:56:10;;;;;;;22.77;9.63;;;;;;;10.41;100.00;102027.50;2094727;28;20059;-73
2023/01/24 03:57:39;;;;;;;12.32;5.47;;;;;;;10.41;100.00;102031.03;2089125;28;20374;-72
2023/01/24 03:59:03;;;;;;;6.68;3.45;;;;;;;10.40;100.00;102031.88;2102668;28;20043;-73
2023/01/24 04:00:29;;;;;;;3.92;2.30;;;;;;;10.41;100.00;102032.78;2103904;28;20048;-73
2023/01/24 04:01:57;;;;;;;5.03;2.22;;;;;;;10.41;100.00;102035.41;2102007;28;20052;-74
2023/01/24 04:03:23;;;;;;;6.70;2.45;;;;;;;10.39;100.00;102036.25;2109252;28;20431;-73
2023/01/24 04:06:26;;;;;;;6.40;2.60;;;;;;;10.35;100.00;102029.09;2105973;28;20059;-73
2023/01/24 04:07:48;;;;;;;23.05;11.95;;;;;;;10.35;100.00;102031.72;2100860;28;20063;-73
2023/01/24 04:09:10;;;;;;;4.97;2.78;;;;;;;10.34;100.00;102032.56;2099981;28;20051;-72
2023/01/24 04:10:32;;;;;;;8.40;5.25;;;;;;;10.34;100.00;102026.38;2094452;28;20512;-73
2023/01/24 04:11:55;;;;;;;5.45;2.25;;;;;;;10.34;100.00;102039.56;2085784;28;20509;-74
2023/01/24 04:13:20;;;;;;;3.03;1.90;;;;;;;10.34;100.00;102032.56;2101000;28;20052;-73
2023/01/24 04:14:42;;;;;;;3.28;2.03;;;;;;;10.33;100.00;102038.66;2094528;28;20048;-73
2023/01/24 04:16:08;;;;;;;9.38;6.13;;;;;;;10.31;100.00;102035.06;2100194;28;20044;-73
2023/01/24 04:17:43;;;;;;;5.60;3.60;;;;;;;10.30;100.00;102025.38;2110906;28;20051;-74
2023/01/24 04:19:06;;;;;;;7.20;4.68;;;;;;;10.29;100.00;102034.13;2090858;28;20048;-73
2023/01/24 04:20:30;;;;;;;4.47;2.40;;;;;;;10.27;100.00;102035.81;2093541;28;20091;-73
2023/01/24 04:21:51;;;;;;;4.25;2.75;;;;;;;10.21;100.00;102038.22;2094887;28;20113;-73
2023/01/24 04:23:14;;;;;;;7.47;5.10;;;;;;;10.13;100.00;102039.63;2099185;28;20583;-74
2023/01/24 04:24:35;;;;;;;8.48;6.68;;;;;;;10.08;100.00;102038.56;2098664;28;20028;-74
2023/01/24 04:25:59;;;;;;;9.90;8.02;;;;;;;10.04;100.00;102044.56;2102831;28;20093;-73
2023/01/24 04:27:22;;;;;;;46.35;41.50;;;;;;;10.03;100.00;102037.50;2101468;28;20044;-73
2023/01/24 04:29:05;;;;;;;13.80;12.25;;;;;;;10.02;100.00;102043.59;2107765;28;20044;-72
2023/01/24 04:30:27;;;;;;;12.02;10.77;;;;;;;10.08;100.00;102042.94;2094914;28;20036;-74
2023/01/24 04:31:51;;;;;;;31.08;27.88;;;;;;;10.12;100.00;102048.38;2109485;28;20054;-74
2023/01/24 04:33:33;;;;;;;23.48;21.02;;;;;;;10.13;100.00;102042.28;2108832;28;20067;-73
2023/01/24 04:34:54;;;;;;;16.85;13.10;;;;;;;10.16;100.00;102049.41;2102457;28;20054;-74
2023/01/24 04:36:31;;;;;;;16.92;14.23;;;;;;;10.14;100.00;102044.06;2096250;28;20090;-73
2023/01/24 04:37:59;;;;;;;14.38;10.57;;;;;;;10.17;100.00;102048.63;2091128;28;20604;-73
2023/01/24 04:39:41;;;;;;;11.10;8.35;;;;;;;10.18;100.00;102047.75;2096877;28;20044;-73
2023/01/24 04:41:13;;;;;;;10.75;7.50;;;;;;;10.21;100.00;102051.41;2101402;28;20569;-73
2023/01/24 04:42:38;;;;;;;12.07;8.05;;;;;;;10.22;100.00;102047.03;2102740;28;20484;-74
2023/01/24 04:44:01;;;;;;;10.18;8.40;;;;;;;10.21;100.00;102059.34;2100693;28;20079;-73
2023/01/24 04:45:23;;;;;;;9.52;6.70;;;;;;;10.21;100.00;102063.72;2098860;28;20036;-73
2023/01/24 04:46:45;;;;;;;7.68;4.90;;;;;;;10.18;100.00;102064.47;2086375;28;20056;-73
2023/01/24 04:48:08;;;;;;;11.60;6.03;;;;;;;10.16;100.00;102063.50;2091876;28;20119;-73
2023/01/24 04:49:31;;;;;;;6.60;3.53;;;;;;;10.13;100.00;102067.75;2092880;28;20044;-74
2023/01/24 04:50:58;;;;;;;7.32;5.40;;;;;;;10.09;100.00;102068.50;2089485;28;20045;-73
2023/01/24 04:52:21;;;;;;;21.60;16.35;;;;;;;10.09;100.00;102077.31;2092802;28;20056;-74
2023/01/24 04:53:54;;;;;;;15.13;9.57;;;;;;;10.09;100.00;102071.13;2103358;28;20048;-73
2023/01/24 04:55:20;;;;;;;17.85;15.05;;;;;;;10.09;100.00;102074.66;2094892;28;20436;-75
2023/01/24 04:56:44;;;;;;;17.95;13.38;;;;;;;10.11;100.00;102070.31;2099284;28;20039;-73
2023/01/24 04:58:07;;;;;;;11.93;9.75;;;;;;;10.10;100.00;102076.47;2088754;28;20064;-73
2023/01/24 04:59:29;;;;;;;11.32;8.20;;;;;;;10.11;100.00;102077.38;2102226;28;20140;-73
2023/01/24 05:00:54;;;;;;;19.95;14.52;;;;;;;10.11;100.00;102080.00;2103269;28;20044;-73
2023/01/24 05:02:17;;;;;;;15.23;11.38;;;;;;;10.11;100.00;102077.38;2101406;28;20118;-74
2023/01/24 05:03:38;;;;;;;13.98;10.25;;;;;;;10.09;100.00;102077.31;2098795;28;20059;-74
2023/01/24 05:05:02;;;;;;;9.13;6.57;;;;;;;10.09;100.00;102077.31;2094452;28;20459;-75
2023/01/24 05:06:24;;;;;;;10.93;7.22;;;;;;;10.08;100.00;102079.88;2108593;28;20050;-73
2023/01/24 05:07:47;;;;;;;13.55;8.27;;;;;;;10.07;100.00;102076.34;2088485;28;20049;-74
2023/01/24 05:09:12;;;;;;;15.93;10.90;;;;;;;10.05;100.00;102080.63;2090291;28;20048;-73
2023/01/24 05:10:46;;;;;;;14.25;11.18;;;;;;;10.05;100.00;102079.75;2093360;28;20063;-73
2023/01/24 05:12:08;;;;;;;12.90;8.15;;;;;;;10.05;100.00;102074.47;2103031;28;20436;-73
2023/01/24 05:13:31;;;;;;;14.85;8.75;;;;;;;10.03;100.00;102074.44;2102112;28;20092;-73
2023/01/24 05:14:53;;;;;;;20.13;13.23;;;;;;;10.03;100.00;102079.72;2101427;28;20056;-74
2023/01/24 05:16:15;;;;;;;13.02;8.93;;;;;;;10.01;100.00;102086.66;2094021;28;20068;-73
2023/01/24 05:17:37;;;;;;;11.35;7.05;;;;;;;9.99;100.00;102089.22;2090554;28;20055;-73
2023/01/24 05:18:59;;;;;;;9.07;5.75;;;;;;;10.00;100.00;102087.50;2091979;28;20083;-73
2023/01/24 05:20:23;;;;;;;5.43;3.90;;;;;;;10.01;100.00;102089.28;2096682;28;20133;-74
2023/01/24 05:21:45;;;;;;;6.40;4.22;;;;;;;10.02;100.00;102091.09;2094249;28;20060;-73
2023/01/24 05:23:09;;;;;;;7.50;4.60;;;;;;;10.04;100.00;102088.53;2101308;28;20050;-73
2023/01/24 05:24:35;;;;;;;14.52;9.10;;;;;;;10.05;100.00;102099.09;2102280;28;20460;-74
2023/01/24 05:25:59;;;;;;;9.95;5.85;;;;;;;10.09;100.00;102086.97;2092558;28;20396;-73
2023/01/24 05:27:24;;;;;;;9.98;6.07;;;;;;;10.12;100.00;102094.97;2092723;28;20056;-73
2023/01/24 05:28:55;;;;;;;9.73;6.22;;;;;;;10.12;100.00;102090.59;2100954;28;20040;-73
2023/01/24 05:30:18;;;;;;;11.10;7.60;;;;;;;10.15;100.00;102090.72;2098458;28;20127;-73
2023/01/24 05:31:46;;;;;;;11.98;8.30;;;;;;;10.16;100.00;102089.91;2087721;28;20113;-73
2023/01/24 05:33:09;;;;;;;9.80;6.75;;;;;;;10.18;100.00;102087.31;2098012;28;20109;-73
2023/01/24 05:34:33;;;;;;;11.35;7.63;;;;;;;10.17;100.00;102102.28;2103196;28;20040;-73
2023/01/24 05:36:01;;;;;;;10.10;6.85;;;;;;;10.18;100.00;102097.88;2108218;28;20479;-73
2023/01/24 05:37:28;;;;;;;10.02;6.80;;;;;;;10.17;100.00;102093.47;2104130;28;20047;-73
2023/01/24 05:38:50;;;;;;;11.02;7.43;;;;;;;10.18;100.00;102093.50;2107647;28;20208;-74
2023/01/24 05:40:12;;;;;;;;;;;;;;;10.16;100.00;102100.44;2096093;28;20056;-74
2023/01/24 05:41:36;;;;;;;10.90;6.72;;;;;;;10.19;100.00;102102.31;2089645;28;19931;-73
2023/01/24 05:42:58;;;;;;;11.43;7.50;;;;;;;10.21;100.00;102106.84;2096819;28;20139;-74
2023/01/24 05:44:21;;;;;;;14.32;9.52;;;;;;;10.24;100.00;102103.44;2093764;28;20040;-73
2023/01/24 05:45:44;;;;;;;15.20;9.50;;;;;;;10.27;100.00;102106.16;2093091;28;20040;-73
2023/01/24 05:47:06;;;;;;;12.20;6.97;;;;;;;10.25;100.00;102105.19;2105290;28;20036;-73
2023/01/24 05:48:33;;;;;;;18.13;9.40;;;;;;;10.25;100.00;102106.09;2097977;28;20535;-74
2023/01/24 05:49:56;;;;;;;34.90;17.52;;;;;;;10.24;100.00;102106.94;2110483;28;20047;-74
2023/01/24 05:51:19;;;;;;;40.33;20.77;;;;;;;10.27;100.00;102111.44;2098134;28;20087;-73
2023/01/24 05:52:42;;;;;;;39.58;20.60;;;;;;;10.28;100.00;102108.88;2092556;28;20041;-73
2023/01/24 05:54:05;;;;;;;45.70;23.73;;;;;;;10.29;100.00;102112.41;2095082;28;20108;-73
2023/01/24 05:55:57;;;;;;;44.08;22.55;;;;;;;10.30;100.00;102111.56;2104336;28;20048;-74
2023/01/24 05:57:20;;;;;;;51.22;25.30;;;;;;;10.31;100.00;102116.88;2095891;28;20044;-73
2023/01/24 05:59:01;;;;;;;54.22;26.25;;;;;;;10.31;100.00;102114.25;2112162;28;20048;-73
2023/01/24 06:00:23;;;;;;;49.45;23.58;;;;;;;10.32;100.00;102118.69;2102670;28;20044;-73
2023/01/24 06:02:04;;;;;;;44.67;23.25;;;;;;;10.33;100.00;102123.13;2099594;28;20047;-73
2023/01/24 06:03:26;;;;;;;43.78;22.88;;;;;;;10.36;100.00;102125.00;2094570;28;20675;-73
2023/01/24 06:04:50;;;;;;;36.22;21.60;;;;;;;10.38;100.00;102118.91;2109633;27;20047;-74
2023/01/24 06:06:13;;;;;;;32.00;18.10;;;;;;;10.43;100.00;102123.50;2099793;28;20460;-74
2023/01/24 06:07:38;;;;;;;27.58;17.25;;;;;;;10.48;100.00;102127.19;2100010;28;20530;-74
2023/01/24 06:09:01;;;;;;;37.30;24.48;;;;;;;10.52;100.00;102131.75;2096600;28;20147;-74
2023/01/24 06:10:22;;;;;;;32.35;20.40;;;;;;;10.57;100.00;102116.97;2093774;28;20032;-74
2023/01/24 06:11:56;;;;;;;30.30;20.02;;;;;;;10.62;100.00;102126.88;2094101;28;20113;-74
2023/01/24 06:13:19;;;;;;;33.83;20.95;;;;;;;10.72;100.00;102123.72;2090762;28;20064;-74
2023/01/24 06:14:42;;;;;;;38.13;22.73;;;;;;;10.86;100.00;102125.97;2091466;28;20040;-73
2023/01/24 06:16:07;;;;;;;51.00;30.40;;;;;;;11.04;100.00;102138.09;2095389;28;20138;-73
2023/01/24 06:17:30;;;;;;;102.32;71.82;;;;;;;11.20;100.00;102136.91;2107330;28;20092;-74
2023/01/24 06:18:54;;;;;;;101.63;70.00;;;;;;;11.35;100.00;102137.44;2095604;28;20569;-73
2023/01/24 06:20:16;;;;;;;43.65;32.45;;;;;;;11.51;100.00;102141.50;2094100;28;20152;-74
2023/01/24 06:21:45;;;;;;;47.67;34.88;;;;;;;11.67;100.00;102142.91;2099455;28;20043;-74
2023/01/24 06:23:25;;;;;;;34.83;26.23;;;;;;;11.83;100.00;102139.94;2106309;28;20047;-73
2023/01/24 06:24:51;;;;;;;41.85;31.00;;;;;;;11.97;100.00;102146.59;2103866;28;20097;-74
2023/01/24 06:26:22;;;;;;;39.60;28.30;;;;;;;12.10;100.00;102153.19;2103216;28;20055;-74
2023/01/24 06:27:44;;;;;;;32.80;25.65;;;;;;;12.24;100.00;102154.50;2108190;28;20548;-73
2023/01/24 06:29:08;;;;;;;26.77;20.58;;;;;;;12.39;100.00;102152.34;2105482;28;20134;-74
2023/01/24 06:30:29;;;;;;;21.70;17.00;;;;;;;12.52;100.00;102150.97;2101779;28;20106;-73
2023/01/24 06:32:02;;;;;;;27.58;20.60;;;;;;;12.62;100.00;102151.28;2108330;28;20071;-73
2023/01/24 06:33:37;;;;;;;29.13;22.55;;;;;;;12.77;100.00;102158.78;2101209;28;20514;-73
2023/01/24 06:35:12;;;;;;;23.80;17.48;;;;;;;12.91;100.00;102157.44;2106556;28;20063;-73
2023/01/24 06:36:47;;;;;;;11.35;7.85;;;;;;;13.06;100.00;102157.84;2111012;28;20056;-74
2023/01/24 06:38:20;;;;;;;7.28;4.50;;;;;;;13.20;100.00;102146.75;2112411;28;20051;-73
2023/01/24 06:39:49;;;;;;;8.40;4.70;;;;;;;13.33;100.00;102157.72;2087058;28;20069;-73
2023/01/24 06:41:16;;;;;;;12.48;8.63;;;;;;;13.45;100.00;102162.47;2107221;28;20044;-74
2023/01/24 06:42:39;;;;;;;14.52;10.10;;;;;;;13.57;100.00;102154.84;2110003;28;20296;-73
2023/01/24 06:44:03;;;;;;;31.25;21.30;;;;;;;13.68;100.00;102161.31;2110136;28;20047;-74
2023/01/24 06:45:24;;;;;;;33.92;25.95;;;;;;;13.79;100.00;102164.22;2102332;28;20036;-73
2023/01/24 06:46:46;;;;;;;39.80;30.88;;;;;;;13.90;100.00;102162.75;2104254;28;20182;-74
2023/01/24 06:48:09;;;;;;;19.10;14.65;;;;;;;14.03;100.00;102164.84;2108351;28;20039;-73
2023/01/24 06:49:32;;;;;;;18.33;13.40;;;;;;;14.16;100.00;102152.75;2096093;28;20048;-74
2023/01/24 06:50:55;;;;;;;20.48;14.48;;;;;;;14.28;100.00;102163.66;2093834;28;20048;-74
2023/01/24 06:52:17;;;;;;;10.77;7.38;;;;;;;14.39;100.00;102159.50;2104837;28;20064;-73
2023/01/24 06:53:41;;;;;;;8.07;5.53;;;;;;;14.50;100.00;102160.66;2109271;28;20050;-74
2023/01/24 06:55:04;;;;;;;9.75;6.70;;;;;;;14.61;100.00;102166.19;2110585;28;20047;-74
2023/01/24 06:56:25;;;;;;;8.13;5.28;;;;;;;14.71;100.00;102165.50;2107793;28;20047;-75
2023/01/24 06:57:48;;;;;;;7.00;4.88;;;;;;;14.81;100.00;102163.97;2103142;28;20051;-74
2023/01/24 06:59:10;;;;;;;8.98;5.95;;;;;;;14.90;100.00;102165.03;2108067;28;20039;-73
2023/01/24 07:00:33;;;;;;;10.85;6.47;;;;;;;15.03;100.00;102166.19;2102720;28;20048;-73
2023/01/24 07:01:55;;;;;;;9.32;6.30;;;;;;;15.14;100.00;102156.66;2106880;28;20039;-73
2023/01/24 07:03:18;;;;;;;12.15;8.68;;;;;;;15.24;100.00;102160.38;2094511;28;20047;-73
2023/01/24 07:04:40;;;;;;;4.78;3.22;;;;;;;15.34;100.00;102162.34;2098614;28;20040;-73
2023/01/24 07:06:03;;;;;;;8.07;5.88;;;;;;;15.44;100.00;102159.88;2103646;28;20139;-73
2023/01/24 07:07:25;;;;;;;5.25;3.35;;;;;;;15.55;100.00;102160.13;2096143;28;20044;-74
2023/01/24 07:08:49;;;;;;;6.00;3.55;;;;;;;15.64;100.00;102152.28;2102846;28;20456;-73